Time;durP1;ratioP1;P1;durP2;ratioP2;P2;SDS_P1;SDS_P2;PMS_P1;PMS_P2;Temp;Humidity;BMP_temperature;BMP_pressure;BME280_temperature;BME280_humidity;BME280_pressure;Samples;Min_cycle;Max_cycle;Signal;HPM_P1;HPM_P2
2024/03/20 00:00:08;;;;;;;48.83;24.48;;;-1.40;99.90;;;;;;4918306;29;20035;-84
2024/03/20 00:02:33;;;;;;;42.72;20.58;;;-1.50;99.90;;;;;;4932638;29;20107;-85
2024/03/20 00:04:59;;;;;;;40.67;21.35;;;-1.50;99.90;;;;;;4926655;29;20107;-84
2024/03/20 00:07:24;;;;;;;44.50;22.98;;;-1.60;99.90;;;;;;4920101;29;20024;-84
2024/03/20 00:09:50;;;;;;;43.92;23.05;;;-1.60;99.90;;;;;;4918030;29;20051;-84
2024/03/20 00:12:16;;;;;;;39.38;19.80;;;-1.60;99.90;;;;;;4916657;29;20063;-84
2024/03/20 00:14:42;;;;;;;35.90;18.80;;;-1.60;99.90;;;;;;4916463;29;20024;-85
2024/03/20 00:17:08;;;;;;;38.13;18.38;;;-1.60;99.90;;;;;;4916529;29;20470;-85
2024/03/20 00:19:35;;;;;;;32.45;18.48;;;-1.70;99.90;;;;;;4932151;29;20028;-85
2024/03/20 00:22:01;;;;;;;35.15;17.85;;;-1.70;99.90;;;;;;4916540;29;20032;-86
2024/03/20 00:24:26;;;;;;;46.95;24.17;;;-1.70;99.90;;;;;;4916319;29;20378;-86
2024/03/20 00:26:52;;;;;;;60.90;29.60;;;-1.70;99.90;;;;;;4916134;29;20544;-85
2024/03/20 00:29:18;;;;;;;71.30;32.03;;;-1.80;99.90;;;;;;4917501;29;20479;-85
2024/03/20 00:31:43;;;;;;;67.47;31.95;;;-1.80;99.90;;;;;;4917486;29;20032;-85
2024/03/20 00:34:09;;;;;;;71.70;34.53;;;-1.90;99.90;;;;;;4917326;29;20063;-85
2024/03/20 00:36:35;;;;;;;108.57;47.22;;;-1.90;99.90;;;;;;4917399;29;20119;-85
2024/03/20 00:39:00;;;;;;;72.53;31.95;;;-1.90;99.90;;;;;;4931768;29;20032;-85
2024/03/20 00:41:26;;;;;;;55.45;25.48;;;-2.00;99.90;;;;;;4916177;29;20023;-83
2024/03/20 00:43:52;;;;;;;35.92;20.52;;;-2.00;99.90;;;;;;4919968;29;20111;-82
2024/03/20 00:46:17;;;;;;;33.35;18.98;;;-2.00;99.90;;;;;;4918925;29;20031;-83
2024/03/20 00:48:43;;;;;;;38.55;17.67;;;-2.10;99.90;;;;;;4918980;29;20099;-83
2024/03/20 00:51:09;;;;;;;35.08;18.98;;;-2.10;99.90;;;;;;4922920;29;20027;-82
2024/03/20 00:53:34;;;;;;;38.67;19.60;;;-2.10;99.90;;;;;;4917960;29;20031;-82
2024/03/20 00:56:00;;;;;;;35.25;17.30;;;-2.20;99.90;;;;;;4916993;29;20028;-82
2024/03/20 00:58:29;;;;;;;38.53;19.02;;;-2.20;99.90;;;;;;4918300;29;20103;-82
2024/03/20 01:00:56;;;;;;;35.03;18.15;;;-2.20;99.90;;;;;;4915942;29;20032;-82
2024/03/20 01:03:21;;;;;;;36.58;18.90;;;-2.20;99.90;;;;;;4917441;29;20027;-82
2024/03/20 01:05:47;;;;;;;36.92;18.33;;;-2.20;99.90;;;;;;4916517;29;20386;-83
2024/03/20 01:08:14;;;;;;;36.05;19.33;;;-2.20;99.90;;;;;;4915801;29;20066;-84
2024/03/20 01:10:40;;;;;;;40.05;19.42;;;-2.20;99.90;;;;;;4916881;29;20056;-84
2024/03/20 01:13:06;;;;;;;38.70;20.20;;;-2.20;99.90;;;;;;4917142;29;20494;-84
2024/03/20 01:15:34;;;;;;;43.40;21.27;;;-2.30;99.90;;;;;;4916947;29;20020;-83
2024/03/20 01:17:59;;;;;;;42.65;21.17;;;-2.30;99.90;;;;;;4917191;29;20123;-83
2024/03/20 01:20:25;;;;;;;41.53;20.90;;;-2.30;99.90;;;;;;4917156;29;20060;-83
2024/03/20 01:22:51;;;;;;;37.63;20.13;;;-2.30;99.90;;;;;;4916366;29;20114;-83
2024/03/20 01:25:17;;;;;;;35.40;19.30;;;-2.30;99.90;;;;;;4918038;29;20024;-83
2024/03/20 01:27:43;;;;;;;37.55;18.40;;;-2.30;99.90;;;;;;4917005;29;20027;-83
2024/03/20 01:30:09;;;;;;;38.75;18.63;;;-2.40;99.90;;;;;;4915465;29;20440;-83
2024/03/20 01:32:35;;;;;;;45.13;19.42;;;-2.40;99.90;;;;;;4917540;29;20043;-83
2024/03/20 01:35:01;;;;;;;42.28;21.55;;;-2.40;99.90;;;;;;4914830;29;20028;-82
2024/03/20 01:37:26;;;;;;;36.50;21.13;;;-2.40;99.90;;;;;;4914972;29;20459;-82
2024/03/20 01:39:52;;;;;;;41.75;22.48;;;-2.40;99.90;;;;;;4916518;29;20426;-82
2024/03/20 01:42:18;;;;;;;43.22;21.42;;;-2.50;99.90;;;;;;4916999;29;20031;-82
2024/03/20 01:44:43;;;;;;;46.53;22.23;;;-2.60;99.90;;;;;;4914779;29;20027;-82
2024/03/20 01:47:09;;;;;;;42.00;22.02;;;-2.60;99.90;;;;;;4916465;29;20028;-82
2024/03/20 01:49:35;;;;;;;46.25;24.75;;;-2.60;99.90;;;;;;4917599;29;20096;-82
2024/03/20 01:52:01;;;;;;;43.92;21.50;;;-2.70;99.90;;;;;;4915454;29;20023;-84
2024/03/20 01:54:27;;;;;;;40.13;20.17;;;-2.70;99.90;;;;;;4914867;29;20043;-83
2024/03/20 01:56:54;;;;;;;38.60;19.13;;;-2.70;99.90;;;;;;4925775;29;20040;-84
2024/03/20 01:59:20;;;;;;;51.40;23.60;;;-2.70;99.90;;;;;;4918205;29;20405;-83
2024/03/20 02:01:46;;;;;;;40.45;24.50;;;-2.70;99.90;;;;;;4915036;29;20519;-83
2024/03/20 02:04:11;;;;;;;40.75;21.33;;;-2.70;99.90;;;;;;4916113;29;20091;-83
2024/03/20 02:06:37;;;;;;;36.25;19.02;;;-2.70;99.90;;;;;;4918008;29;20504;-83
2024/03/20 02:09:04;;;;;;;34.55;17.90;;;-2.80;99.90;;;;;;4921063;29;20035;-82
2024/03/20 02:11:31;;;;;;;38.78;18.85;;;-2.80;99.90;;;;;;4919972;29;20029;-83
2024/03/20 02:13:57;;;;;;;41.35;19.08;;;-2.80;99.90;;;;;;4920243;29;20096;-83
2024/03/20 02:16:24;;;;;;;39.20;20.40;;;-2.80;99.90;;;;;;4919224;29;20032;-83
2024/03/20 02:18:51;;;;;;;35.67;19.95;;;-2.80;99.90;;;;;;4919994;29;20030;-84
2024/03/20 02:21:22;;;;;;;37.03;18.27;;;-2.80;99.90;;;;;;4932196;29;20009;-84
2024/03/20 02:23:48;;;;;;;40.53;20.63;;;-2.80;99.90;;;;;;4920023;29;20099;-84
2024/03/20 02:26:15;;;;;;;39.97;18.23;;;-2.80;99.90;;;;;;4920103;29;20111;-84
2024/03/20 02:28:43;;;;;;;41.92;19.95;;;-2.80;99.90;;;;;;4919018;29;20031;-84
2024/03/20 02:31:09;;;;;;;32.53;17.77;;;-2.80;99.90;;;;;;4934988;29;20035;-83
2024/03/20 02:33:36;;;;;;;35.00;18.63;;;-2.80;99.90;;;;;;4921024;29;20051;-83
2024/03/20 02:36:03;;;;;;;46.85;21.17;;;-2.90;99.90;;;;;;4920730;29;20031;-83
2024/03/20 02:38:34;;;;;;;43.45;21.98;;;-2.90;99.90;;;;;;4921182;29;20088;-83
2024/03/20 02:41:00;;;;;;;40.97;20.95;;;-3.00;99.90;;;;;;4921333;29;20522;-83
2024/03/20 02:43:26;;;;;;;46.15;21.50;;;-3.10;99.90;;;;;;4920013;29;20016;-83
2024/03/20 02:45:53;;;;;;;41.78;20.08;;;-3.10;99.90;;;;;;4933710;29;20032;-82
2024/03/20 02:48:18;;;;;;;37.95;19.48;;;-3.10;99.90;;;;;;4923894;29;20512;-82
2024/03/20 02:50:44;;;;;;;38.72;21.17;;;-3.20;99.90;;;;;;4920009;29;20020;-83
2024/03/20 02:53:10;;;;;;;41.22;19.80;;;-3.20;99.90;;;;;;4919115;29;20513;-83
2024/03/20 02:55:39;;;;;;;34.70;18.83;;;-3.20;99.90;;;;;;4920924;29;20043;-83
2024/03/20 02:58:05;;;;;;;36.20;18.23;;;-3.20;99.90;;;;;;4921763;29;20098;-83
2024/03/20 03:00:31;;;;;;;34.75;18.05;;;-3.20;99.90;;;;;;4922154;29;20020;-82
2024/03/20 03:02:58;;;;;;;39.33;19.52;;;-3.20;99.90;;;;;;4921824;29;20067;-83
2024/03/20 03:05:25;;;;;;;34.53;18.27;;;-3.20;99.90;;;;;;4921882;29;20024;-83
2024/03/20 03:07:51;;;;;;;32.53;18.45;;;-3.20;99.90;;;;;;4921872;29;20022;-83
2024/03/20 03:10:18;;;;;;;33.90;18.55;;;-3.20;99.90;;;;;;4922481;29;20453;-83
2024/03/20 03:12:44;;;;;;;29.50;17.15;;;-3.20;99.90;;;;;;4922456;29;20060;-83
2024/03/20 03:15:10;;;;;;;44.33;18.98;;;-3.20;99.90;;;;;;4919651;29;20031;-83
2024/03/20 03:17:37;;;;;;;40.22;17.75;;;-3.20;99.90;;;;;;4918537;29;20083;-83
2024/03/20 03:20:13;;;;;;;31.27;16.17;;;-3.20;99.90;;;;;;4921793;29;20020;-82
2024/03/20 03:22:39;;;;;;;36.70;17.10;;;-3.20;99.90;;;;;;4924682;29;20021;-82
2024/03/20 03:25:06;;;;;;;31.95;17.40;;;-3.30;99.90;;;;;;4938886;29;20111;-83
2024/03/20 03:27:32;;;;;;;36.97;18.17;;;-3.30;99.90;;;;;;4919750;29;20054;-83
2024/03/20 03:29:57;;;;;;;28.83;17.90;;;-3.20;99.90;;;;;;4917460;29;20087;-83
2024/03/20 03:32:23;;;;;;;37.35;17.35;;;-3.30;99.90;;;;;;4919214;29;20423;-83
2024/03/20 03:34:49;;;;;;;37.05;16.23;;;-3.30;99.90;;;;;;4927690;29;20032;-83
2024/03/20 03:37:14;;;;;;;38.45;18.83;;;-3.30;99.90;;;;;;4917270;29;20032;-82
2024/03/20 03:39:40;;;;;;;34.15;17.65;;;-3.30;99.90;;;;;;4917244;29;20115;-83
2024/03/20 03:42:06;;;;;;;39.15;19.45;;;-3.30;99.90;;;;;;4917120;29;20043;-83
2024/03/20 03:44:31;;;;;;;38.08;18.80;;;-3.30;99.90;;;;;;4917006;29;20500;-83
2024/03/20 03:46:57;;;;;;;34.05;19.13;;;-3.30;99.90;;;;;;4918303;29;20040;-82
2024/03/20 03:49:23;;;;;;;37.40;19.10;;;-3.40;99.90;;;;;;4916905;29;20044;-82
2024/03/20 03:51:48;;;;;;;36.47;19.15;;;-3.40;99.90;;;;;;4917120;29;20027;-82
2024/03/20 03:54:14;;;;;;;40.78;17.80;;;-3.40;99.90;;;;;;4906822;29;20031;-82
2024/03/20 03:56:39;;;;;;;39.03;19.35;;;-3.40;99.90;;;;;;4917076;29;20398;-82
2024/03/20 03:59:05;;;;;;;37.97;18.92;;;-3.40;99.90;;;;;;4918168;29;20039;-82
2024/03/20 04:01:31;;;;;;;34.20;17.17;;;-3.50;99.90;;;;;;4917053;29;20047;-82
2024/03/20 04:03:56;;;;;;;47.28;18.38;;;-3.40;99.90;;;;;;4918100;29;20032;-83
2024/03/20 04:06:22;;;;;;;36.10;18.13;;;-3.40;99.90;;;;;;4918499;29;20028;-82
2024/03/20 04:08:47;;;;;;;38.42;17.80;;;-3.40;99.90;;;;;;4916792;29;20068;-82
2024/03/20 04:11:13;;;;;;;36.05;15.98;;;-3.40;99.90;;;;;;4917096;29;20020;-82
2024/03/20 04:13:39;;;;;;;33.22;17.83;;;-3.40;99.90;;;;;;4918072;29;20056;-82
2024/03/20 04:16:04;;;;;;;33.90;16.70;;;-3.40;99.90;;;;;;4918434;29;20427;-82
2024/03/20 04:18:30;;;;;;;38.08;18.80;;;-3.40;99.90;;;;;;4917221;29;20372;-81
2024/03/20 04:20:56;;;;;;;37.25;20.13;;;-3.40;99.90;;;;;;4918176;29;20028;-82
2024/03/20 04:23:23;;;;;;;42.55;18.52;;;-3.40;99.90;;;;;;4917844;29;20058;-82
2024/03/20 04:25:48;;;;;;;39.55;18.05;;;-3.30;99.90;;;;;;4917611;29;20028;-83
2024/03/20 04:28:14;;;;;;;39.53;18.70;;;-3.30;99.90;;;;;;4916046;29;20438;-82
2024/03/20 04:30:40;;;;;;;41.80;18.55;;;-3.30;99.90;;;;;;4932214;29;20043;-83
2024/03/20 04:33:06;;;;;;;38.20;20.35;;;-3.40;99.90;;;;;;4916182;29;20474;-83
2024/03/20 04:35:33;;;;;;;39.13;20.27;;;-3.50;99.90;;;;;;4916352;29;20028;-82
2024/03/20 04:37:58;;;;;;;40.85;19.65;;;-3.50;99.90;;;;;;4918004;29;20064;-81
2024/03/20 04:40:24;;;;;;;35.15;18.00;;;-3.50;99.90;;;;;;4916031;29;20059;-82
2024/03/20 04:42:49;;;;;;;42.30;18.70;;;-3.50;99.90;;;;;;4928512;29;20498;-81
2024/03/20 04:45:15;;;;;;;40.33;20.60;;;-3.60;99.90;;;;;;4915629;29;20087;-82
2024/03/20 04:47:41;;;;;;;43.38;19.30;;;-3.60;99.90;;;;;;4916889;29;20071;-82
2024/03/20 04:50:11;;;;;;;30.33;16.75;;;-3.60;99.90;;;;;;4919511;29;20052;-82
2024/03/20 04:52:37;;;;;;;38.85;18.15;;;-3.60;99.90;;;;;;4914975;29;20032;-83
2024/03/20 04:55:06;;;;;;;33.47;17.98;;;-3.60;99.90;;;;;;4909408;29;20028;-84
2024/03/20 04:57:33;;;;;;;42.47;18.67;;;-3.70;99.90;;;;;;4916789;29;20028;-84
2024/03/20 04:59:59;;;;;;;38.45;20.92;;;-3.60;99.90;;;;;;4916535;29;20031;-84
2024/03/20 05:02:25;;;;;;;34.65;18.80;;;-3.60;99.90;;;;;;4925547;29;20025;-84
2024/03/20 05:04:50;;;;;;;36.90;18.08;;;-3.60;99.90;;;;;;4915242;29;20035;-85
2024/03/20 05:07:16;;;;;;;33.22;18.17;;;-3.60;99.90;;;;;;4916774;29;20359;-85
2024/03/20 05:09:42;;;;;;;35.08;16.63;;;-3.60;99.90;;;;;;4916031;29;20107;-86
2024/03/20 05:12:08;;;;;;;29.35;16.17;;;-3.60;99.90;;;;;;4915152;29;20124;-85
2024/03/20 05:14:34;;;;;;;31.15;17.23;;;-3.50;99.90;;;;;;4916226;29;20020;-85
2024/03/20 05:17:03;;;;;;;38.90;18.70;;;-3.50;99.90;;;;;;4915185;29;20461;-84
2024/03/20 05:19:29;;;;;;;40.08;18.52;;;-3.50;99.90;;;;;;4913045;29;20450;-84
2024/03/20 05:21:55;;;;;;;42.35;19.48;;;-3.40;99.90;;;;;;4913693;29;20024;-85
2024/03/20 05:24:21;;;;;;;37.58;18.13;;;-3.40;99.90;;;;;;4916226;29;20020;-85
2024/03/20 05:26:46;;;;;;;32.78;17.60;;;-3.30;99.90;;;;;;4913547;29;20032;-85
2024/03/20 05:29:12;;;;;;;39.55;18.13;;;-3.30;99.90;;;;;;4915433;29;20020;-82
2024/03/20 05:31:42;;;;;;;39.47;17.85;;;-3.20;99.90;;;;;;4915204;29;20557;-83
2024/03/20 05:34:10;;;;;;;43.22;20.23;;;-3.20;99.90;;;;;;4915919;29;20016;-81
2024/03/20 05:36:36;;;;;;;45.05;20.15;;;-3.10;99.90;;;;;;4914530;29;20054;-79
2024/03/20 05:39:05;;;;;;;48.08;25.55;;;-3.10;99.90;;;;;;4924921;29;20525;-79
2024/03/20 05:41:31;;;;;;;44.00;20.92;;;-3.00;99.90;;;;;;4914576;29;20266;-80
2024/03/20 05:43:57;;;;;;;41.90;20.42;;;-2.90;99.90;;;;;;4914427;29;20032;-81
2024/03/20 05:46:23;;;;;;;38.45;19.00;;;-2.80;99.90;;;;;;4916152;29;20024;-81
2024/03/20 05:48:50;;;;;;;37.83;19.10;;;-2.70;99.90;;;;;;4915499;29;20406;-82
2024/03/20 05:51:16;;;;;;;35.85;17.55;;;-2.60;99.90;;;;;;4914440;29;20039;-81
2024/03/20 05:53:41;;;;;;;33.67;17.63;;;-2.50;99.90;;;;;;4913041;29;20040;-80
2024/03/20 05:56:07;;;;;;;36.22;19.45;;;-2.40;99.90;;;;;;4914437;29;20042;-81
2024/03/20 05:58:33;;;;;;;43.63;20.40;;;-2.30;99.90;;;;;;4913754;29;20454;-83
2024/03/20 06:00:58;;;;;;;39.15;19.73;;;-2.20;99.90;;;;;;4912570;29;20398;-85
2024/03/20 06:03:24;;;;;;;44.65;22.83;;;-2.10;99.90;;;;;;4911898;29;20020;-84
2024/03/20 06:05:51;;;;;;;36.03;20.65;;;-1.90;99.90;;;;;;4912395;29;20048;-83
2024/03/20 06:08:17;;;;;;;33.95;19.40;;;-1.70;99.90;;;;;;4915220;29;20482;-85
2024/03/20 06:10:43;;;;;;;39.88;20.40;;;-1.60;99.90;;;;;;4914299;29;20035;-84
2024/03/20 06:13:09;;;;;;;40.63;20.33;;;-1.30;99.90;;;;;;4913006;29;20033;-85
2024/03/20 06:15:35;;;;;;;41.03;21.90;;;-1.10;99.90;;;;;;4913151;29;20023;-81
2024/03/20 06:18:01;;;;;;;38.85;20.63;;;-0.90;99.90;;;;;;4905926;29;20047;-82
2024/03/20 06:20:27;;;;;;;41.58;18.80;;;-0.80;99.90;;;;;;4915480;29;20028;-85
2024/03/20 06:22:53;;;;;;;51.00;22.52;;;-0.60;99.90;;;;;;4915530;29;20028;-85
2024/03/20 06:25:19;;;;;;;60.13;28.40;;;-0.40;99.90;;;;;;4915629;29;20035;-85
2024/03/20 06:27:45;;;;;;;61.05;28.73;;;-0.30;99.90;;;;;;4915567;29;20111;-84
2024/03/20 06:30:11;;;;;;;68.80;30.85;;;-0.10;99.90;;;;;;4915323;29;20449;-82
2024/03/20 06:32:39;;;;;;;66.68;29.20;;;0.00;99.90;;;;;;4914780;29;20401;-86
2024/03/20 06:35:06;;;;;;;107.50;42.03;;;0.20;99.90;;;;;;4914374;29;20021;-85
2024/03/20 06:37:32;;;;;;;130.60;46.42;;;0.40;99.90;;;;;;4915884;29;20040;-85
2024/03/20 06:39:57;;;;;;;128.60;49.03;;;0.50;99.90;;;;;;4906908;29;20028;-84
2024/03/20 06:42:23;;;;;;;125.50;49.90;;;0.80;99.90;;;;;;4909917;29;20028;-85
2024/03/20 06:44:49;;;;;;;105.95;39.20;;;1.00;99.90;;;;;;4925380;29;20032;-82
2024/03/20 06:47:16;;;;;;;106.65;40.53;;;1.20;99.90;;;;;;4911825;29;20112;-83
2024/03/20 06:49:45;;;;;;;63.22;30.65;;;1.50;99.90;;;;;;4914554;29;20052;-86
2024/03/20 06:52:19;;;;;;;85.07;36.13;;;1.70;99.90;;;;;;4916221;29;20032;-83
2024/03/20 06:54:46;;;;;;;114.20;43.70;;;1.90;99.90;;;;;;4918861;29;20028;-84
2024/03/20 06:57:13;;;;;;;71.65;29.80;;;2.00;99.90;;;;;;4918979;29;20036;-87
2024/03/20 06:59:42;;;;;;;84.53;34.63;;;2.30;99.90;;;;;;4917188;29;20048;-83
2024/03/20 07:02:08;;;;;;;90.93;40.25;;;2.40;99.90;;;;;;4919132;29;20035;-83
2024/03/20 07:04:37;;;;;;;98.55;40.58;;;2.60;99.90;;;;;;4918509;29;20024;-87
2024/03/20 07:07:03;;;;;;;97.05;38.53;;;2.80;99.90;;;;;;4917759;29;20024;-85
2024/03/20 07:09:33;;;;;;;86.22;38.88;;;2.90;99.90;;;;;;4917274;29;20035;-86
2024/03/20 07:11:59;;;;;;;55.83;29.27;;;3.10;99.90;;;;;;4933872;29;20390;-87
2024/03/20 07:14:29;;;;;;;49.95;23.55;;;3.30;99.90;;;;;;4917248;29;20016;-85
2024/03/20 07:16:55;;;;;;;47.78;23.73;;;3.40;99.90;;;;;;4913563;29;20096;-86
2024/03/20 07:19:24;;;;;;;51.78;24.60;;;3.60;99.90;;;;;;4916440;29;20545;-86
2024/03/20 07:21:49;;;;;;;45.42;22.95;;;3.70;99.90;;;;;;4917586;29;20036;-84
2024/03/20 07:24:15;;;;;;;43.38;23.17;;;3.90;99.90;;;;;;4915529;29;20032;-83
2024/03/20 07:26:41;;;;;;;48.83;24.67;;;3.90;99.90;;;;;;4911882;29;20038;-83
2024/03/20 07:29:10;;;;;;;47.95;23.33;;;3.90;99.90;;;;;;4916429;29;20470;-82
2024/03/20 07:31:37;;;;;;;50.63;26.35;;;4.00;99.90;;;;;;4917302;29;20115;-84
2024/03/20 07:34:03;;;;;;;42.45;22.83;;;4.00;99.90;;;;;;4918817;29;20043;-83
2024/03/20 07:36:29;;;;;;;38.22;20.90;;;4.20;99.90;;;;;;4923762;29;20036;-83
2024/03/20 07:38:56;;;;;;;31.02;18.40;;;4.30;99.90;;;;;;4914933;29;20028;-83
2024/03/20 07:41:22;;;;;;;32.50;16.85;;;4.30;96.20;;;;;;4915121;29;20427;-83
2024/03/20 07:43:49;;;;;;;29.38;16.15;;;4.40;94.60;;;;;;4916111;29;20556;-83
2024/03/20 07:46:15;;;;;;;27.63;16.08;;;4.50;93.50;;;;;;4916483;29;20024;-83
2024/03/20 07:48:46;;;;;;;33.42;17.10;;;4.70;93.10;;;;;;4917748;29;20055;-83
2024/03/20 07:51:14;;;;;;;27.88;15.45;;;4.90;92.00;;;;;;4914015;29;20024;-84
2024/03/20 07:53:44;;;;;;;21.60;14.07;;;5.00;88.00;;;;;;4916611;29;20024;-83
2024/03/20 07:56:10;;;;;;;23.42;15.70;;;5.10;84.40;;;;;;4917049;29;20406;-83
2024/03/20 07:58:37;;;;;;;23.85;14.00;;;5.20;81.00;;;;;;4917958;29;20043;-83
2024/03/20 08:01:04;;;;;;;29.75;15.68;;;5.20;80.00;;;;;;4916701;29;20028;-83
2024/03/20 08:03:30;;;;;;;26.90;14.95;;;5.30;78.90;;;;;;4915962;29;20020;-83
2024/03/20 08:05:56;;;;;;;29.08;16.27;;;5.40;77.50;;;;;;4924968;29;20514;-83
2024/03/20 08:08:21;;;;;;;23.70;14.85;;;5.60;77.30;;;;;;4917869;29;20039;-83
2024/03/20 08:10:47;;;;;;;25.75;13.48;;;5.70;76.30;;;;;;4916557;29;20035;-83
2024/03/20 08:13:14;;;;;;;27.38;16.27;;;5.80;75.50;;;;;;4916518;29;21047;-83
2024/03/20 08:15:40;;;;;;;28.83;16.08;;;6.00;75.30;;;;;;4916589;29;20478;-83
2024/03/20 08:18:06;;;;;;;25.25;14.63;;;6.00;73.50;;;;;;4916324;29;20110;-83
2024/03/20 08:20:35;;;;;;;25.02;14.88;;;6.20;72.20;;;;;;4917765;29;20039;-83
2024/03/20 08:23:04;;;;;;;24.75;14.85;;;6.40;71.50;;;;;;4916344;29;20020;-83
2024/03/20 08:25:30;;;;;;;98.93;64.45;;;6.40;69.70;;;;;;4917550;29;20084;-83
2024/03/20 08:27:57;;;;;;;77.97;45.22;;;6.40;68.60;;;;;;4917387;29;20478;-83
2024/03/20 08:30:23;;;;;;;46.67;23.92;;;6.40;68.40;;;;;;4916122;29;20027;-83
2024/03/20 08:32:49;;;;;;;24.48;14.90;;;6.60;69.10;;;;;;4916214;29;20028;-83
2024/03/20 08:35:17;;;;;;;26.48;15.48;;;6.70;68.10;;;;;;4916147;29;20042;-83
2024/03/20 08:37:43;;;;;;;26.25;14.15;;;6.70;66.70;;;;;;4917446;29;20039;-83
2024/03/20 08:40:10;;;;;;;21.75;14.30;;;6.80;65.90;;;;;;4916121;29;20062;-83
2024/03/20 08:42:36;;;;;;;23.83;14.10;;;7.00;67.20;;;;;;4916101;29;20060;-83
2024/03/20 08:45:03;;;;;;;23.70;14.68;;;7.10;66.40;;;;;;4928411;29;20024;-83
2024/03/20 08:47:29;;;;;;;23.10;14.55;;;7.20;66.80;;;;;;4914119;29;20021;-83
2024/03/20 08:49:55;;;;;;;22.33;13.43;;;7.30;65.50;;;;;;4915868;29;20056;-83
2024/03/20 08:52:24;;;;;;;23.88;14.52;;;7.30;64.50;;;;;;4914669;29;20079;-83
2024/03/20 08:54:50;;;;;;;23.10;14.95;;;7.30;65.00;;;;;;4908752;29;20032;-83
2024/03/20 08:57:19;;;;;;;23.30;14.18;;;7.40;64.30;;;;;;4917007;29;20420;-83
2024/03/20 08:59:45;;;;;;;23.45;14.20;;;7.50;63.10;;;;;;4915837;29;20394;-82
2024/03/20 09:02:12;;;;;;;26.50;14.35;;;7.70;64.80;;;;;;4917104;29;20020;-83
2024/03/20 09:04:40;;;;;;;26.77;15.00;;;7.70;65.20;;;;;;4915534;29;20028;-83
2024/03/20 09:07:06;;;;;;;24.10;14.63;;;7.70;62.70;;;;;;4915741;29;20024;-83
2024/03/20 09:09:34;;;;;;;20.40;13.52;;;7.70;62.60;;;;;;4915667;29;20394;-83
2024/03/20 09:12:04;;;;;;;24.23;15.63;;;7.70;61.70;;;;;;4915584;29;20028;-83
2024/03/20 09:14:34;;;;;;;35.03;14.82;;;7.70;61.10;;;;;;4930915;29;20027;-83
2024/03/20 09:17:00;;;;;;;24.00;14.63;;;7.80;61.70;;;;;;4915648;29;20123;-83
2024/03/20 09:19:25;;;;;;;21.20;12.60;;;8.00;61.30;;;;;;4931127;29;20099;-83
2024/03/20 09:21:51;;;;;;;22.27;14.77;;;8.00;59.90;;;;;;4915444;29;20028;-83
2024/03/20 09:24:19;;;;;;;22.92;14.52;;;8.10;59.80;;;;;;4916199;29;20027;-83
2024/03/20 09:26:46;;;;;;;22.33;13.93;;;8.20;59.50;;;;;;4915494;29;20028;-83
2024/03/20 09:29:12;;;;;;;21.20;13.10;;;8.20;59.00;;;;;;4914903;29;20051;-83
2024/03/20 09:31:38;;;;;;;21.08;13.57;;;8.20;58.00;;;;;;4915342;29;20394;-83
2024/03/20 09:34:04;;;;;;;21.63;13.32;;;8.20;57.70;;;;;;4914847;29;20036;-82
2024/03/20 09:36:30;;;;;;;19.63;13.52;;;8.30;57.80;;;;;;4916645;29;20142;-83
2024/03/20 09:38:57;;;;;;;26.77;15.20;;;8.40;58.90;;;;;;4899134;29;20525;-83
2024/03/20 09:41:23;;;;;;;20.70;12.48;;;8.60;59.40;;;;;;4916443;29;20021;-83
2024/03/20 09:43:52;;;;;;;20.20;12.27;;;8.70;58.80;;;;;;4930415;29;20043;-83
2024/03/20 09:46:19;;;;;;;21.27;14.27;;;8.70;58.50;;;;;;4915151;29;20028;-83
2024/03/20 09:48:49;;;;;;;20.92;12.68;;;8.80;57.90;;;;;;4915542;29;20127;-83
2024/03/20 09:51:18;;;;;;;18.85;13.85;;;8.80;56.90;;;;;;4916507;29;20431;-83
2024/03/20 09:53:51;;;;;;;22.30;13.60;;;8.70;56.40;;;;;;4915968;29;20028;-82
2024/03/20 09:56:17;;;;;;;;;;;8.70;57.10;;;;;;4916725;29;20059;-82
2024/03/20 09:58:42;;;;;;;19.98;11.98;;;8.90;57.40;;;;;;4914936;29;20284;-83
2024/03/20 10:01:13;;;;;;;20.63;12.52;;;9.10;58.10;;;;;;4915975;29;20108;-83
2024/03/20 10:03:39;;;;;;;20.92;11.93;;;9.30;59.00;;;;;;4930717;29;20363;-83
2024/03/20 10:06:08;;;;;;;22.08;13.30;;;9.40;57.90;;;;;;4916080;29;20114;-82
2024/03/20 10:08:37;;;;;;;20.58;12.73;;;9.50;57.90;;;;;;4915785;29;20062;-82
2024/03/20 10:11:03;;;;;;;19.02;12.35;;;9.60;58.10;;;;;;4914858;29;20032;-82
2024/03/20 10:13:29;;;;;;;21.88;12.45;;;9.70;57.70;;;;;;4930309;29;20054;-82
2024/03/20 10:16:14;;;;;;;19.15;12.13;;;9.50;56.50;;;;;;4914489;29;20449;-83
2024/03/20 10:18:44;;;;;;;27.83;16.90;;;9.40;55.90;;;;;;4916287;29;20115;-82
2024/03/20 10:21:10;;;;;;;21.05;13.65;;;9.30;55.30;;;;;;4915976;29;20498;-83
2024/03/20 10:23:41;;;;;;;23.73;14.00;;;9.40;55.90;;;;;;4914445;29;20032;-83
2024/03/20 10:26:10;;;;;;;15.85;10.75;;;9.50;55.90;;;;;;4914580;29;20497;-83
2024/03/20 10:28:39;;;;;;;16.30;10.50;;;9.60;56.20;;;;;;4919888;29;20032;-83
2024/03/20 10:31:10;;;;;;;16.75;11.15;;;9.60;55.30;;;;;;4919532;29;20397;-83
2024/03/20 10:33:38;;;;;;;16.17;11.02;;;9.60;54.40;;;;;;4919879;29;20055;-83
2024/03/20 10:36:08;;;;;;;19.88;11.25;;;9.50;54.30;;;;;;4919316;29;20024;-82
2024/03/20 10:38:34;;;;;;;14.23;10.23;;;9.60;55.00;;;;;;4918126;29;20020;-82
2024/03/20 10:41:02;;;;;;;16.10;10.07;;;9.70;55.70;;;;;;4919593;29;20047;-83
2024/03/20 10:43:29;;;;;;;15.65;10.13;;;9.60;55.00;;;;;;4919708;29;20496;-83
2024/03/20 10:46:00;;;;;;;16.75;10.93;;;9.60;54.50;;;;;;4933597;29;20027;-82
2024/03/20 10:48:26;;;;;;;16.27;9.88;;;9.60;54.70;;;;;;4918992;29;20491;-82
2024/03/20 10:50:54;;;;;;;17.83;9.40;;;9.80;54.80;;;;;;4917895;29;20039;-83
2024/03/20 10:53:25;;;;;;;13.88;9.38;;;9.80;55.10;;;;;;4918340;29;20072;-83
2024/03/20 10:55:54;;;;;;;16.45;9.73;;;9.90;54.60;;;;;;4917434;29;20039;-83
2024/03/20 10:58:25;;;;;;;13.85;8.68;;;10.00;53.40;;;;;;4917987;29;20485;-82
2024/03/20 11:00:53;;;;;;;15.40;9.20;;;10.10;53.60;;;;;;4917981;29;20073;-82
2024/03/20 11:03:41;;;;;;;17.85;10.65;;;10.00;53.20;;;;;;4919639;29;20055;-83
2024/03/20 11:06:28;;;;;;;17.20;10.18;;;10.20;54.10;;;;;;4918038;29;20035;-82
2024/03/20 11:09:07;;;;;;;17.88;11.05;;;10.20;54.10;;;;;;4907849;29;20127;-83
2024/03/20 11:11:33;;;;;;;17.45;10.73;;;10.30;54.40;;;;;;4917826;29;20024;-82
2024/03/20 11:14:01;;;;;;;18.13;10.45;;;10.30;52.80;;;;;;4918752;29;20107;-83
2024/03/20 11:16:28;;;;;;;33.45;19.17;;;10.30;52.40;;;;;;4917316;29;20047;-82
2024/03/20 11:18:57;;;;;;;38.78;19.25;;;10.40;52.40;;;;;;4917383;29;20490;-82
2024/03/20 11:21:24;;;;;;;19.05;11.52;;;10.40;51.80;;;;;;4918954;29;20014;-83
2024/03/20 11:23:50;;;;;;;107.35;61.42;;;10.50;52.20;;;;;;4918582;29;20027;-82
2024/03/20 11:26:16;;;;;;;41.92;24.02;;;10.50;51.80;;;;;;4918761;29;20039;-83
2024/03/20 11:28:47;;;;;;;13.48;9.13;;;10.60;51.70;;;;;;4919001;29;20043;-83
2024/03/20 11:31:13;;;;;;;17.67;10.45;;;10.50;51.30;;;;;;4917435;29;20027;-82
2024/03/20 11:33:42;;;;;;;16.80;11.00;;;10.60;51.10;;;;;;4917585;29;20043;-83
2024/03/20 11:36:13;;;;;;;16.92;10.30;;;10.70;51.40;;;;;;4917286;29;20505;-83
2024/03/20 11:38:40;;;;;;;29.85;18.77;;;10.80;51.00;;;;;;4918361;29;20375;-83
2024/03/20 11:41:05;;;;;;;35.85;22.60;;;10.90;52.50;;;;;;4920197;29;20025;-83
2024/03/20 11:43:33;;;;;;;18.00;10.50;;;11.00;51.90;;;;;;4924536;29;20025;-83
2024/03/20 11:46:00;;;;;;;26.27;17.05;;;11.10;50.80;;;;;;4918095;29;20078;-83
2024/03/20 11:48:25;;;;;;;17.20;11.85;;;11.10;50.30;;;;;;4918356;29;20031;-83
2024/03/20 11:50:51;;;;;;;11.95;9.60;;;11.10;50.30;;;;;;4918289;29;20032;-83
2024/03/20 11:53:17;;;;;;;15.75;10.80;;;10.90;49.20;;;;;;4918403;29;20446;-83
2024/03/20 11:55:43;;;;;;;17.30;11.75;;;11.00;50.80;;;;;;4917746;29;20051;-83
2024/03/20 11:58:14;;;;;;;62.78;37.47;;;11.00;50.20;;;;;;4932912;29;20058;-83
2024/03/20 12:00:43;;;;;;;25.90;15.73;;;11.20;51.20;;;;;;4927405;29;20031;-83
2024/03/20 12:03:27;;;;;;;21.45;14.52;;;11.30;51.70;;;;;;4916890;29;20058;-83
2024/03/20 12:06:17;;;;;;;31.83;18.80;;;11.40;51.00;;;;;;4907186;29;20111;-83
2024/03/20 12:08:44;;;;;;;22.83;14.68;;;11.40;51.90;;;;;;4918010;29;20881;-83
2024/03/20 12:11:28;;;;;;;17.38;11.60;;;11.50;51.00;;;;;;4918367;29;20042;-83
2024/03/20 12:13:55;;;;;;;18.95;12.00;;;11.50;50.60;;;;;;4905538;29;20389;-84
2024/03/20 12:16:22;;;;;;;16.90;11.02;;;11.60;50.90;;;;;;4911471;29;20073;-83
2024/03/20 12:18:48;;;;;;;16.88;11.73;;;11.50;49.80;;;;;;4921008;29;20055;-83
2024/03/20 12:21:15;;;;;;;62.58;37.97;;;11.30;48.60;;;;;;4930798;29;20060;-83
2024/03/20 12:23:41;;;;;;;19.67;12.00;;;11.40;48.20;;;;;;4930920;29;20103;-83
2024/03/20 12:26:07;;;;;;;25.40;17.75;;;11.50;49.10;;;;;;4914359;29;20033;-83
2024/03/20 12:28:33;;;;;;;21.98;15.50;;;11.50;48.60;;;;;;4915043;29;20043;-83